Time;durP1;ratioP1;P1;durP2;ratioP2;P2;SDS_P1;SDS_P2;PMS_P1;PMS_P2;Temp;Humidity;BMP_temperature;BMP_pressure;BME280_temperature;BME280_humidity;BME280_pressure;Samples;Min_cycle;Max_cycle;Signal;HPM_P1;HPM_P2
2022/06/21 00:01:38;;;;;;;1.90;0.70;;;16.20;99.90;;;;;;5076489;28;20735;-63
2022/06/21 00:04:05;;;;;;;4.00;1.00;;;16.20;99.90;;;;;;5076277;28;20267;-61
2022/06/21 00:06:32;;;;;;;1.27;0.93;;;16.20;99.90;;;;;;5076409;28;20221;-64
2022/06/21 00:08:58;;;;;;;3.73;1.50;;;16.20;99.90;;;;;;5077302;28;20230;-63
2022/06/21 00:11:28;;;;;;;1.08;0.90;;;16.20;99.90;;;;;;5077102;28;20236;-62
2022/06/21 00:13:55;;;;;;;1.43;0.90;;;16.00;99.90;;;;;;5078367;28;20216;-63
2022/06/21 00:16:23;;;;;;;3.17;1.20;;;15.90;99.90;;;;;;5076234;28;20271;-63
2022/06/21 00:18:52;;;;;;;4.27;0.90;;;15.80;99.90;;;;;;5076128;28;20696;-65
2022/06/21 00:21:23;;;;;;;2.20;1.20;;;15.80;99.90;;;;;;5076411;28;20708;-62
2022/06/21 00:23:50;;;;;;;1.20;1.00;;;15.70;99.90;;;;;;5075970;28;20227;-63
2022/06/21 00:26:20;;;;;;;1.17;1.00;;;15.70;99.90;;;;;;5075818;28;20224;-63
2022/06/21 00:28:47;;;;;;;1.43;1.20;;;15.60;99.90;;;;;;5076394;28;20216;-63
2022/06/21 00:31:17;;;;;;;3.00;1.40;;;15.60;99.90;;;;;;5076107;28;20221;-62
2022/06/21 00:33:44;;;;;;;1.33;0.90;;;15.60;99.90;;;;;;5076406;28;20204;-63
2022/06/21 00:36:21;;;;;;;2.40;1.20;;;15.60;99.90;;;;;;5076164;28;20205;-63
2022/06/21 00:38:50;;;;;;;2.47;1.20;;;15.60;99.90;;;;;;5076137;28;20362;-62
2022/06/21 00:41:19;;;;;;;1.87;1.10;;;15.60;99.90;;;;;;5075483;28;20229;-63
2022/06/21 00:43:50;;;;;;;1.33;1.00;;;15.50;99.90;;;;;;5076118;28;20216;-63
2022/06/21 00:46:31;;;;;;;1.87;1.10;;;15.50;99.90;;;;;;5076138;28;20205;-63
2022/06/21 00:48:59;;;;;;;2.50;1.10;;;15.40;99.90;;;;;;5076394;28;20204;-63
2022/06/21 00:51:35;;;;;;;1.33;1.00;;;15.40;99.90;;;;;;5076391;28;20468;-63
2022/06/21 00:54:09;;;;;;;1.70;1.20;;;15.30;99.90;;;;;;5075375;28;20699;-62
2022/06/21 00:56:40;;;;;;;1.03;0.87;;;15.10;99.90;;;;;;5076491;28;20646;-63
2022/06/21 00:59:27;;;;;;;1.70;1.00;;;15.00;99.90;;;;;;5076605;28;20201;-63
2022/06/21 01:01:58;;;;;;;3.13;1.23;;;15.00;99.90;;;;;;5075674;28;20256;-63
2022/06/21 01:04:29;;;;;;;7.93;1.30;;;15.00;99.90;;;;;;5075524;28;20239;-63
2022/06/21 01:07:02;;;;;;;1.93;1.00;;;14.90;99.90;;;;;;5075823;28;20233;-63
2022/06/21 01:09:33;;;;;;;1.70;0.93;;;14.80;99.90;;;;;;5077585;28;20296;-63
2022/06/21 01:12:05;;;;;;;2.13;1.27;;;14.80;99.90;;;;;;5076116;28;20228;-63
2022/06/21 01:14:33;;;;;;;2.70;1.40;;;14.70;99.90;;;;;;5075628;28;20201;-63
2022/06/21 01:17:00;;;;;;;5.60;1.30;;;14.70;99.90;;;;;;5075510;28;20204;-63
2022/06/21 01:19:36;;;;;;;1.53;0.90;;;14.60;99.90;;;;;;5075700;28;20241;-62
2022/06/21 01:22:15;;;;;;;2.90;1.37;;;14.60;99.90;;;;;;5075188;28;20233;-63
2022/06/21 01:24:55;;;;;;;2.50;1.10;;;14.50;99.90;;;;;;5075048;28;20216;-63
2022/06/21 01:27:23;;;;;;;1.50;1.10;;;14.40;99.90;;;;;;5074925;28;20693;-63
2022/06/21 01:29:52;;;;;;;4.00;1.47;;;14.40;99.90;;;;;;5075160;28;20205;-63
2022/06/21 01:32:19;;;;;;;1.30;1.00;;;14.30;99.90;;;;;;5075208;28;20228;-63
2022/06/21 01:34:46;;;;;;;4.83;1.20;;;14.20;99.90;;;;;;5074615;28;20211;-63
2022/06/21 01:37:27;;;;;;;1.33;1.10;;;14.20;99.90;;;;;;5074884;28;20208;-62
2022/06/21 01:40:01;;;;;;;4.20;1.20;;;14.20;99.90;;;;;;5076059;28;20213;-63
2022/06/21 01:42:32;;;;;;;1.33;1.00;;;14.20;99.90;;;;;;5075290;28;20247;-63
2022/06/21 01:45:05;;;;;;;1.77;1.10;;;14.20;99.90;;;;;;5074882;28;20684;-63
2022/06/21 01:47:37;;;;;;;3.23;1.30;;;14.10;99.90;;;;;;5074933;28;20221;-63
2022/06/21 01:50:06;;;;;;;1.60;1.00;;;14.20;99.90;;;;;;5075782;28;20204;-63
2022/06/21 01:52:36;;;;;;;1.67;1.20;;;14.20;99.90;;;;;;5074963;28;20583;-63
2022/06/21 01:55:07;;;;;;;2.30;1.10;;;14.20;99.90;;;;;;5074708;28;20201;-63
2022/06/21 01:57:37;;;;;;;2.60;1.30;;;14.20;99.90;;;;;;5074916;28;20216;-63
2022/06/21 02:00:06;;;;;;;3.70;1.37;;;14.20;99.90;;;;;;5075339;28;20696;-63
2022/06/21 02:02:38;;;;;;;3.77;1.30;;;14.20;99.90;;;;;;5075047;28;20247;-63
2022/06/21 02:05:09;;;;;;;1.87;1.20;;;14.20;99.90;;;;;;5074898;28;20262;-63
2022/06/21 02:07:44;;;;;;;1.87;1.10;;;14.10;99.90;;;;;;5075021;28;20236;-63
2022/06/21 02:10:17;;;;;;;2.70;1.10;;;14.20;99.90;;;;;;5076319;28;20210;-63
2022/06/21 02:12:49;;;;;;;3.40;1.10;;;14.20;99.90;;;;;;5074692;28;20236;-63
2022/06/21 02:15:31;;;;;;;2.00;0.97;;;14.30;99.90;;;;;;5074575;28;20211;-63
2022/06/21 02:18:02;;;;;;;2.23;1.20;;;14.30;99.90;;;;;;5075339;28;20672;-62
2022/06/21 02:20:36;;;;;;;2.57;1.10;;;14.30;99.90;;;;;;5075272;28;20209;-63
2022/06/21 02:23:03;;;;;;;1.97;1.20;;;14.20;99.90;;;;;;5075562;28;20277;-63
2022/06/21 02:25:30;;;;;;;4.20;1.40;;;14.20;99.90;;;;;;5074987;28;20228;-62
2022/06/21 02:28:02;;;;;;;2.83;1.10;;;14.20;99.90;;;;;;5075148;28;20227;-63
2022/06/21 02:30:29;;;;;;;1.50;1.10;;;14.20;99.90;;;;;;5074521;28;20586;-62
2022/06/21 02:32:59;;;;;;;3.70;1.20;;;14.20;99.90;;;;;;5074760;28;20648;-62
2022/06/21 02:35:29;;;;;;;2.93;1.03;;;14.20;99.90;;;;;;5074431;28;20300;-63
2022/06/21 02:37:59;;;;;;;4.67;1.10;;;14.20;99.90;;;;;;5075136;28;20208;-63
2022/06/21 02:40:29;;;;;;;4.27;1.53;;;14.10;99.90;;;;;;5074547;28;20623;-63
2022/06/21 02:43:00;;;;;;;2.30;1.10;;;14.10;99.90;;;;;;5075608;28;20225;-63
2022/06/21 02:45:32;;;;;;;2.20;1.23;;;14.10;99.90;;;;;;5075150;28;20220;-63
2022/06/21 02:48:05;;;;;;;3.60;1.10;;;14.10;99.90;;;;;;5074734;28;20220;-63
2022/06/21 02:50:38;;;;;;;1.60;1.27;;;14.10;99.90;;;;;;5075600;28;20208;-63
2022/06/21 02:53:10;;;;;;;3.80;1.60;;;14.10;99.90;;;;;;5075963;28;20224;-64
2022/06/21 02:55:42;;;;;;;2.03;1.17;;;14.00;99.90;;;;;;5074634;28;20687;-61
2022/06/21 02:58:16;;;;;;;3.77;2.03;;;13.90;99.90;;;;;;5075844;28;20258;-63
2022/06/21 03:00:45;;;;;;;3.33;1.33;;;14.00;99.90;;;;;;5076507;28;20213;-63
2022/06/21 03:03:18;;;;;;;2.90;2.17;;;14.10;99.90;;;;;;5075660;28;20225;-64
2022/06/21 03:05:48;;;;;;;5.57;1.60;;;14.20;99.90;;;;;;5074794;28;20209;-63
2022/06/21 03:08:16;;;;;;;2.20;1.37;;;14.20;99.90;;;;;;5075401;28;20265;-62
2022/06/21 03:10:46;;;;;;;1.93;1.30;;;14.20;99.90;;;;;;5075145;28;20200;-63
2022/06/21 03:13:17;;;;;;;2.00;1.50;;;14.10;99.90;;;;;;5074972;28;20232;-63
2022/06/21 03:15:47;;;;;;;4.80;1.77;;;14.10;99.90;;;;;;5074455;28;20283;-62
2022/06/21 03:18:19;;;;;;;3.47;1.50;;;14.00;99.90;;;;;;5074424;28;20292;-63
2022/06/21 03:20:47;;;;;;;1.60;1.30;;;13.90;99.90;;;;;;5074872;28;20267;-62
2022/06/21 03:23:14;;;;;;;2.70;1.30;;;14.00;99.90;;;;;;5074255;28;20248;-61
2022/06/21 03:25:44;;;;;;;1.77;1.10;;;14.00;99.90;;;;;;5074436;28;20209;-63
2022/06/21 03:28:28;;;;;;;2.60;1.13;;;14.00;99.90;;;;;;5074904;28;20230;-63
2022/06/21 03:31:00;;;;;;;3.73;1.10;;;14.00;99.90;;;;;;5075056;28;20205;-63
2022/06/21 03:33:27;;;;;;;2.90;1.57;;;13.90;99.90;;;;;;5074915;28;20205;-63
2022/06/21 03:35:55;;;;;;;1.93;1.40;;;13.90;99.90;;;;;;5074675;28;20216;-63
2022/06/21 03:38:23;;;;;;;1.93;1.20;;;13.80;99.90;;;;;;5074706;28;20201;-63
2022/06/21 03:43:42;;;;;;;2.83;1.53;;;13.90;99.90;;;;;;5073919;28;20683;-63
2022/06/21 03:46:15;;;;;;;1.87;1.27;;;13.90;99.90;;;;;;5073716;28;20209;-63
2022/06/21 03:48:48;;;;;;;3.50;1.60;;;14.00;99.90;;;;;;5073986;28;20240;-63
2022/06/21 03:51:17;;;;;;;3.63;1.57;;;14.10;99.90;;;;;;5073646;28;20225;-63
2022/06/21 03:53:49;;;;;;;3.07;1.57;;;14.30;99.90;;;;;;5073309;28;20215;-63
2022/06/21 03:56:20;;;;;;;5.80;1.70;;;14.40;99.90;;;;;;5072925;28;20270;-66
2022/06/21 03:58:55;;;;;;;4.57;1.70;;;14.50;99.90;;;;;;5073405;28;20677;-62
2022/06/21 04:01:27;;;;;;;2.93;1.40;;;14.60;99.90;;;;;;5073303;28;20220;-62
2022/06/21 04:04:00;;;;;;;2.10;1.30;;;14.70;99.90;;;;;;5074680;28;20255;-62
2022/06/21 04:06:32;;;;;;;3.23;1.60;;;14.80;99.90;;;;;;5072611;28;20531;-62
2022/06/21 04:09:03;;;;;;;3.43;1.40;;;15.00;99.90;;;;;;5073931;28;20232;-64
2022/06/21 04:11:39;;;;;;;4.13;1.67;;;15.10;99.90;;;;;;5074020;28;20256;-63
2022/06/21 04:14:15;;;;;;;2.90;1.33;;;15.20;99.90;;;;;;5072821;28;20266;-63
2022/06/21 04:16:47;;;;;;;2.53;1.50;;;15.30;99.90;;;;;;5075403;28;20205;-63
2022/06/21 04:19:24;;;;;;;4.47;1.50;;;15.40;99.90;;;;;;5076335;28;20201;-63
2022/06/21 04:21:58;;;;;;;3.83;1.47;;;15.60;99.90;;;;;;5076355;28;20271;-63
2022/06/21 04:24:29;;;;;;;3.37;1.70;;;15.70;99.90;;;;;;5076322;28;20201;-63
2022/06/21 04:27:00;;;;;;;4.50;1.57;;;15.90;99.90;;;;;;5076643;28;20262;-63
2022/06/21 04:29:33;;;;;;;3.90;1.40;;;16.00;99.90;;;;;;5077029;28;20228;-62
2022/06/21 04:32:07;;;;;;;5.87;1.50;;;16.10;99.90;;;;;;5076674;28;20231;-63
2022/06/21 04:34:39;;;;;;;3.05;1.50;;;16.20;99.90;;;;;;5077227;28;20288;-63
2022/06/21 04:37:09;;;;;;;6.47;1.53;;;16.40;99.90;;;;;;5076949;28;20209;-63
2022/06/21 04:39:40;;;;;;;3.10;1.70;;;16.70;99.90;;;;;;5077375;28;20216;-63
2022/06/21 04:42:10;;;;;;;5.53;1.80;;;16.90;99.90;;;;;;5077463;28;20315;-62
2022/06/21 04:44:45;;;;;;;3.47;1.95;;;17.10;99.90;;;;;;5077169;28;20204;-61
2022/06/21 04:47:16;;;;;;;2.60;1.45;;;17.70;99.90;;;;;;5077403;28;20211;-61
2022/06/21 04:49:45;;;;;;;2.70;1.70;;;19.10;99.90;;;;;;5077377;28;20205;-61
2022/06/21 04:52:16;;;;;;;3.45;1.75;;;20.80;99.90;;;;;;5077249;28;20599;-61
2022/06/21 04:54:44;;;;;;;4.43;1.63;;;22.50;96.60;;;;;;5076973;28;20209;-61
2022/06/21 04:57:15;;;;;;;3.13;1.77;;;24.20;91.70;;;;;;5076833;28;20215;-61
2022/06/21 04:59:46;;;;;;;4.75;2.45;;;25.50;86.40;;;;;;5077112;28;20209;-61
2022/06/21 05:02:21;;;;;;;4.00;1.80;;;26.20;81.20;;;;;;5076623;28;20227;-62
2022/06/21 05:04:52;;;;;;;3.72;1.52;;;26.40;77.20;;;;;;5076818;28;20204;-62
2022/06/21 05:07:23;;;;;;;7.03;1.45;;;26.40;73.40;;;;;;5077192;28;20622;-61
2022/06/21 05:09:52;;;;;;;4.00;1.58;;;25.90;74.10;;;;;;5076669;28;20201;-61
2022/06/21 05:12:24;;;;;;;3.58;1.80;;;25.30;74.40;;;;;;5076312;28;20236;-59
2022/06/21 05:14:57;;;;;;;5.70;2.10;;;24.70;75.50;;;;;;5076600;28;20201;-59
2022/06/21 05:17:27;;;;;;;3.63;1.55;;;24.30;76.80;;;;;;5075876;28;20276;-58
2022/06/21 05:20:04;;;;;;;4.53;1.45;;;23.70;76.80;;;;;;5075509;28;20687;-59
2022/06/21 05:22:35;;;;;;;3.17;1.70;;;23.00;79.20;;;;;;5075155;28;20224;-59
2022/06/21 05:25:06;;;;;;;4.13;1.50;;;22.70;81.70;;;;;;5075650;28;20240;-59
2022/06/21 05:27:40;;;;;;;6.63;1.98;;;22.90;81.00;;;;;;5075160;28;20212;-59
2022/06/21 05:30:16;;;;;;;4.10;1.90;;;23.30;80.40;;;;;;5075578;28;20211;-60
2022/06/21 05:32:47;;;;;;;5.53;1.67;;;24.20;77.20;;;;;;5075372;28;20763;-59
2022/06/21 05:35:17;;;;;;;3.47;1.40;;;25.20;74.70;;;;;;5074611;28;20274;-59
2022/06/21 05:37:51;;;;;;;2.78;1.38;;;26.50;71.30;;;;;;5075026;28;20211;-59
2022/06/21 05:40:25;;;;;;;4.05;2.17;;;28.00;66.30;;;;;;5074832;28;20573;-60
2022/06/21 05:42:52;;;;;;;4.82;1.60;;;29.20;62.60;;;;;;5074735;28;20703;-59
2022/06/21 05:45:26;;;;;;;2.75;1.17;;;29.80;58.50;;;;;;5074486;28;20208;-59
2022/06/21 05:47:58;;;;;;;3.85;1.38;;;29.90;57.70;;;;;;5074982;28;20219;-62
2022/06/21 05:50:29;;;;;;;5.63;3.42;;;29.50;58.30;;;;;;5075094;28;20577;-63
2022/06/21 05:53:05;;;;;;;3.45;1.50;;;29.50;59.60;;;;;;5074867;28;20777;-62
2022/06/21 05:55:36;;;;;;;5.90;4.05;;;30.10;57.30;;;;;;5074504;28;20211;-61
2022/06/21 05:58:07;;;;;;;3.63;1.80;;;30.90;55.20;;;;;;5074899;28;20234;-62
2022/06/21 06:00:44;;;;;;;4.95;3.88;;;31.00;54.00;;;;;;5074990;28;20212;-61
2022/06/21 06:03:15;;;;;;;3.35;1.83;;;30.80;54.20;;;;;;5075400;28;20224;-61
2022/06/21 06:05:44;;;;;;;5.45;2.22;;;30.70;53.10;;;;;;5074642;28;20211;-62
2022/06/21 06:08:14;;;;;;;3.10;1.50;;;30.70;53.80;;;;;;5074253;28;20217;-62
2022/06/21 06:10:44;;;;;;;1.67;1.23;;;31.20;52.40;;;;;;5074373;28;20684;-61
2022/06/21 06:13:16;;;;;;;6.85;2.60;;;31.90;50.20;;;;;;5074552;28;20282;-62
2022/06/21 06:15:50;;;;;;;2.85;1.70;;;32.10;49.60;;;;;;5074347;28;20211;-61
2022/06/21 06:18:21;;;;;;;4.80;2.97;;;32.10;49.40;;;;;;5074487;28;20212;-61
2022/06/21 06:20:53;;;;;;;8.13;3.67;;;32.00;49.80;;;;;;5074418;28;20295;-61
2022/06/21 06:23:28;;;;;;;3.13;1.60;;;31.60;49.80;;;;;;5074694;28;20557;-64
2022/06/21 06:25:59;;;;;;;7.47;3.08;;;31.00;49.70;;;;;;5074182;28;20208;-61
2022/06/21 06:28:31;;;;;;;4.28;1.63;;;30.30;50.00;;;;;;5074311;28;20229;-61
2022/06/21 06:31:04;;;;;;;5.32;2.70;;;29.20;52.20;;;;;;5074317;28;20216;-61
2022/06/21 06:33:35;;;;;;;5.28;2.30;;;28.30;53.00;;;;;;5074378;28;20262;-60
2022/06/21 06:36:08;;;;;;;6.30;2.92;;;27.60;54.70;;;;;;5073877;28;20201;-57
2022/06/21 06:38:36;;;;;;;3.58;1.73;;;27.70;55.60;;;;;;5073728;28;20196;-57
2022/06/21 06:41:06;;;;;;;4.25;1.80;;;27.90;54.70;;;;;;5074481;28;20209;-57
2022/06/21 06:43:39;;;;;;;4.20;1.80;;;28.10;54.60;;;;;;5074551;28;20201;-57
2022/06/21 06:46:11;;;;;;;1.95;1.20;;;28.40;54.20;;;;;;5073973;28;20212;-57
2022/06/21 06:48:40;;;;;;;3.58;1.63;;;29.40;52.40;;;;;;5074244;28;20229;-57
2022/06/21 06:51:37;;;;;;;2.33;1.52;;;30.70;50.30;;;;;;5073322;28;20205;-57
2022/06/21 06:54:08;;;;;;;4.30;1.70;;;31.80;48.90;;;;;;5073148;28;20253;-57
2022/06/21 06:56:53;;;;;;;3.47;1.50;;;32.00;48.40;;;;;;5072709;28;20288;-57
2022/06/21 06:59:24;;;;;;;1.73;1.15;;;32.10;47.60;;;;;;5073245;28;20205;-57
2022/06/21 07:01:58;;;;;;;1.85;1.17;;;32.40;47.70;;;;;;5072994;28;20225;-57
2022/06/21 07:04:28;;;;;;;3.45;1.48;;;32.80;46.30;;;;;;5073069;28;20223;-57
2022/06/21 07:07:01;;;;;;;4.07;1.67;;;33.30;46.10;;;;;;5072879;28;20204;-58
2022/06/21 07:09:31;;;;;;;3.72;1.40;;;34.10;45.30;;;;;;5073753;28;20245;-58
2022/06/21 07:12:05;;;;;;;3.35;1.50;;;34.80;44.50;;;;;;5073281;28;20240;-57
2022/06/21 07:14:34;;;;;;;5.53;1.98;;;34.70;44.00;;;;;;5073159;28;20209;-58
2022/06/21 07:17:08;;;;;;;2.08;1.23;;;34.70;43.70;;;;;;5072698;28;20661;-56
2022/06/21 07:19:34;;;;;;;4.57;1.67;;;34.70;43.30;;;;;;5072551;28;20201;-57
2022/06/21 07:22:02;;;;;;;5.55;1.50;;;34.40;44.00;;;;;;5073144;28;20232;-57
2022/06/21 07:24:28;;;;;;;3.72;1.60;;;33.70;44.60;;;;;;5072998;28;20244;-56
2022/06/21 07:27:02;;;;;;;2.92;1.50;;;33.90;44.30;;;;;;5073179;28;20574;-56
2022/06/21 07:29:33;;;;;;;4.93;2.10;;;34.50;43.60;;;;;;5072484;28;20684;-57
2022/06/21 07:32:06;;;;;;;5.43;1.55;;;34.30;43.60;;;;;;5072291;28;20233;-56
2022/06/21 07:34:37;;;;;;;3.95;1.38;;;34.00;43.90;;;;;;5072723;28;20204;-56
2022/06/21 07:37:08;;;;;;;3.63;1.40;;;34.20;44.30;;;;;;5072606;28;20236;-57
2022/06/21 07:39:38;;;;;;;1.92;1.30;;;34.90;42.90;;;;;;5073041;28;20225;-56
2022/06/21 07:42:09;;;;;;;2.33;1.40;;;35.20;42.30;;;;;;5072049;28;20617;-57
2022/06/21 07:44:42;;;;;;;4.47;1.40;;;35.50;42.50;;;;;;5072170;28;20580;-57
2022/06/21 07:47:16;;;;;;;2.58;1.20;;;35.80;41.30;;;;;;5072317;28;20213;-57
2022/06/21 07:49:48;;;;;;;1.55;1.20;;;34.80;42.10;;;;;;5073007;28;20229;-57
2022/06/21 07:52:19;;;;;;;6.10;1.60;;;33.30;43.50;;;;;;5075821;28;20225;-57
2022/06/21 07:54:52;;;;;;;6.85;1.52;;;32.40;45.20;;;;;;5075700;28;20209;-57
2022/06/21 07:57:23;;;;;;;3.28;1.30;;;32.20;45.80;;;;;;5076075;28;20243;-57
2022/06/21 07:59:54;;;;;;;4.53;1.25;;;32.70;45.00;;;;;;5076526;28;20213;-57
2022/06/21 08:08:01;;;;;;;4.07;1.35;;;32.90;44.50;;;;;;5076872;28;20200;-56
2022/06/21 08:10:34;;;;;;;2.83;1.30;;;31.60;46.80;;;;;;5078306;28;20228;-57
2022/06/21 08:13:01;;;;;;;3.80;1.50;;;32.10;46.40;;;;;;5078412;28;20236;-58
2022/06/21 08:15:34;;;;;;;2.67;1.50;;;33.70;45.10;;;;;;5079283;28;20220;-57
2022/06/21 08:18:08;;;;;;;2.80;1.02;;;35.10;43.50;;;;;;5077739;28;20193;-57
2022/06/21 08:20:42;;;;;;;3.50;1.38;;;35.70;42.20;;;;;;5076997;28;20209;-57
2022/06/21 08:23:20;;;;;;;5.00;1.60;;;35.90;42.00;;;;;;5073500;28;20488;-60
2022/06/21 08:25:53;;;;;;;3.35;1.13;;;35.10;42.50;;;;;;5075385;28;20212;-67
2022/06/21 08:28:24;;;;;;;2.90;1.27;;;34.90;42.90;;;;;;5074242;28;20265;-62
2022/06/21 08:30:55;;;;;;;3.53;1.30;;;35.00;42.80;;;;;;5074626;28;20201;-61
2022/06/21 08:33:27;;;;;;;2.13;1.27;;;35.50;42.50;;;;;;5075210;28;20321;-63
2022/06/21 08:36:01;;;;;;;1.88;1.00;;;36.30;41.80;;;;;;5074874;28;20607;-64
2022/06/21 08:38:33;;;;;;;2.63;1.30;;;36.80;40.90;;;;;;5075283;28;20228;-64
2022/06/21 08:44:43;;;;;;;3.22;1.50;;;37.40;40.00;;;;;;5072813;28;20621;-62
2022/06/21 08:47:34;;;;;;;2.53;1.20;;;37.30;39.50;;;;;;5068645;28;20216;-62
2022/06/21 08:50:32;;;;;;;3.35;1.38;;;36.40;40.70;;;;;;5073780;28;20232;-61
2022/06/21 08:53:17;;;;;;;3.05;1.48;;;35.40;41.90;;;;;;5039327;28;20229;-61
2022/06/21 08:55:53;;;;;;;1.95;1.23;;;34.20;43.10;;;;;;5074416;28;20205;-61
2022/06/21 08:58:35;;;;;;;2.35;1.30;;;32.90;45.10;;;;;;5074286;28;20304;-61
2022/06/21 09:01:10;;;;;;;3.10;1.30;;;32.00;46.50;;;;;;5073762;28;20209;-61
2022/06/21 09:04:13;;;;;;;4.40;1.48;;;31.20;47.90;;;;;;5074158;28;20684;-61
2022/06/21 09:06:51;;;;;;;2.85;1.40;;;30.60;48.80;;;;;;5071428;28;20573;-61
2022/06/21 09:09:42;;;;;;;4.20;1.88;;;30.50;49.40;;;;;;5073419;28;20734;-62
2022/06/21 09:12:20;;;;;;;3.97;1.17;;;30.60;49.40;;;;;;5073361;28;20240;-61
2022/06/21 09:15:07;;;;;;;5.25;1.60;;;30.90;48.90;;;;;;5073229;28;20200;-62
2022/06/21 09:17:45;;;;;;;4.53;1.52;;;30.40;49.80;;;;;;5073259;28;20272;-61
2022/06/21 09:20:23;;;;;;;2.38;1.40;;;29.90;49.80;;;;;;5073199;28;20212;-61
2022/06/21 09:23:06;;;;;;;2.70;1.30;;;28.90;51.80;;;;;;5073100;28;20231;-60
2022/06/21 09:25:44;;;;;;;6.85;1.90;;;28.40;52.60;;;;;;5073190;28;20205;-60
2022/06/21 09:28:23;;;;;;;2.80;1.60;;;28.40;53.20;;;;;;5072869;28;20578;-60
2022/06/21 09:30:57;;;;;;;3.08;1.48;;;28.50;53.30;;;;;;5074629;28;20217;-64
2022/06/21 09:33:35;;;;;;;4.53;1.70;;;28.80;52.90;;;;;;5074791;28;20251;-63
2022/06/21 09:36:09;;;;;;;3.70;1.45;;;29.00;52.40;;;;;;5073393;28;20209;-62
2022/06/21 09:38:49;;;;;;;6.63;1.80;;;29.20;52.20;;;;;;5074291;28;20219;-62
2022/06/21 09:41:25;;;;;;;2.10;1.27;;;29.30;52.20;;;;;;5074778;28;20255;-58
2022/06/21 09:44:10;;;;;;;9.43;1.35;;;29.30;52.00;;;;;;5073970;28;20204;-59
2022/06/21 09:46:47;;;;;;;5.53;1.90;;;29.00;52.20;;;;;;5073587;28;20208;-59
2022/06/21 09:49:25;;;;;;;1.83;1.20;;;28.70;53.20;;;;;;5075167;28;20281;-59
2022/06/21 09:52:04;;;;;;;3.53;1.35;;;28.40;53.70;;;;;;5074026;28;20278;-58
2022/06/21 09:54:36;;;;;;;3.90;1.27;;;28.30;54.00;;;;;;5073967;28;20319;-59
2022/06/21 09:57:15;;;;;;;2.03;1.33;;;28.70;53.70;;;;;;5073360;28;20665;-59
2022/06/21 09:59:51;;;;;;;4.55;1.70;;;28.90;53.40;;;;;;5073556;28;20215;-59
2022/06/21 10:02:26;;;;;;;2.85;1.50;;;28.90;53.40;;;;;;5074400;28;20319;-58
2022/06/21 10:05:03;;;;;;;5.38;1.38;;;28.90;54.10;;;;;;5073665;28;20256;-59
2022/06/21 10:07:39;;;;;;;5.65;2.97;;;28.90;53.40;;;;;;5073554;28;20315;-60
2022/06/21 10:10:26;;;;;;;6.18;1.58;;;28.90;53.50;;;;;;5073931;28;20220;-59
2022/06/21 10:13:02;;;;;;;7.00;1.60;;;28.90;53.90;;;;;;5072528;28;20247;-59
2022/06/21 10:15:39;;;;;;;2.72;1.45;;;29.00;53.50;;;;;;5073110;28;20673;-59
2022/06/21 10:18:23;;;;;;;3.58;1.67;;;29.20;53.30;;;;;;5073549;28;20688;-59
2022/06/21 10:21:01;;;;;;;5.10;1.70;;;29.10;53.70;;;;;;5073592;28;20215;-58
2022/06/21 10:23:58;;;;;;;2.60;1.60;;;28.50;54.60;;;;;;5073800;28;20695;-59
2022/06/21 10:26:41;;;;;;;4.35;1.67;;;27.90;56.00;;;;;;5073109;28;20209;-59
2022/06/21 10:29:34;;;;;;;2.20;1.33;;;27.50;57.00;;;;;;5072470;28;20591;-60
2022/06/21 10:32:15;;;;;;;3.20;1.58;;;27.10;57.90;;;;;;5072729;28;20224;-59
2022/06/21 10:35:01;;;;;;;3.15;1.85;;;26.90;59.20;;;;;;5072699;28;20208;-61
2022/06/21 10:37:39;;;;;;;3.55;1.42;;;26.80;59.50;;;;;;5072390;28;20622;-58
2022/06/21 10:40:52;;;;;;;3.55;1.73;;;26.80;59.40;;;;;;5072782;28;20625;-58
2022/06/21 10:43:59;;;;;;;2.95;1.55;;;27.00;59.20;;;;;;4990912;28;20218;-58
2022/06/21 10:46:30;;;;;;;3.25;1.70;;;26.70;60.20;;;;;;4990622;28;20672;-59
2022/06/21 10:49:33;;;;;;;4.13;1.73;;;26.30;61.20;;;;;;5059098;28;20212;-60
2022/06/21 10:52:19;;;;;;;3.90;1.77;;;26.10;61.90;;;;;;5072401;28;20290;-58
2022/06/21 10:55:04;;;;;;;4.57;1.65;;;26.20;62.70;;;;;;5072485;28;20200;-59
2022/06/21 10:57:39;;;;;;;3.47;1.80;;;26.20;63.60;;;;;;5072575;28;20216;-58
2022/06/21 11:03:20;;;;;;;3.50;1.85;;;26.20;64.10;;;;;;5072716;28;20283;-60
2022/06/21 11:05:55;;;;;;;3.63;2.10;;;26.00;64.50;;;;;;5072027;28;20204;-59
2022/06/21 11:08:31;;;;;;;4.75;1.80;;;25.80;65.60;;;;;;5072419;28;20254;-59
2022/06/21 11:11:04;;;;;;;3.35;1.92;;;25.80;65.80;;;;;;5072077;28;20224;-59
2022/06/21 11:13:37;;;;;;;2.47;1.60;;;25.90;66.50;;;;;;5073164;28;20212;-62
2022/06/21 11:16:14;;;;;;;3.60;1.92;;;25.90;66.60;;;;;;5072155;28;20224;-61
2022/06/21 11:18:54;;;;;;;4.30;2.10;;;26.10;67.30;;;;;;5071948;28;20201;-61
2022/06/21 11:21:35;;;;;;;4.78;1.88;;;26.10;67.20;;;;;;5072430;28;20252;-60
2022/06/21 11:24:13;;;;;;;4.88;1.98;;;26.40;66.20;;;;;;5072611;28;20208;-60
2022/06/21 11:26:51;;;;;;;4.80;2.20;;;26.40;67.80;;;;;;5076367;28;20213;-59
2022/06/21 11:29:28;;;;;;;4.28;2.20;;;26.50;68.30;;;;;;5076291;28;20704;-60
2022/06/21 11:32:00;;;;;;;8.68;2.13;;;26.60;68.80;;;;;;5076522;28;20231;-60
2022/06/21 11:34:38;;;;;;;5.00;2.17;;;26.90;67.30;;;;;;5076514;28;20205;-61
2022/06/21 11:37:17;;;;;;;4.30;1.95;;;27.30;66.60;;;;;;5076404;28;20583;-61
2022/06/21 11:39:56;;;;;;;4.45;2.00;;;27.60;66.00;;;;;;5076235;28;20196;-60
2022/06/21 11:42:25;;;;;;;4.68;2.10;;;27.50;66.40;;;;;;5076555;28;20259;-61
2022/06/21 11:45:11;;;;;;;4.75;1.98;;;27.50;67.00;;;;;;5075981;28;20217;-60
2022/06/21 11:48:00;;;;;;;3.58;2.00;;;27.50;66.80;;;;;;5076080;28;20240;-60
2022/06/21 11:50:30;;;;;;;3.67;1.83;;;27.60;67.00;;;;;;5075863;28;20220;-61
2022/06/21 11:53:14;;;;;;;4.07;2.08;;;27.90;66.60;;;;;;5075985;28;20229;-61
2022/06/21 11:55:44;;;;;;;6.47;2.13;;;28.20;67.10;;;;;;5075456;28;20204;-61
2022/06/21 11:58:24;;;;;;;5.68;2.45;;;28.50;66.90;;;;;;5075756;28;20692;-61
2022/06/21 12:00:56;;;;;;;6.32;2.90;;;29.00;65.30;;;;;;5074942;28;20211;-61
2022/06/21 12:03:32;;;;;;;3.90;2.00;;;29.40;64.40;;;;;;5075449;28;20594;-61
2022/06/21 12:06:06;;;;;;;3.70;1.80;;;29.80;63.20;;;;;;5075131;28;20208;-61
2022/06/21 12:08:38;;;;;;;3.28;2.20;;;30.00;63.10;;;;;;5076647;28;20205;-60
2022/06/21 12:11:15;;;;;;;2.45;1.90;;;30.00;62.80;;;;;;5074690;28;20227;-60
2022/06/21 12:13:51;;;;;;;4.38;2.20;;;30.00;63.20;;;;;;5075072;28;20641;-59
2022/06/21 12:16:41;;;;;;;5.60;2.28;;;30.00;63.20;;;;;;5075067;28;20266;-60
2022/06/21 12:19:14;;;;;;;4.07;2.10;;;30.10;63.30;;;;;;5075128;28;20205;-59
2022/06/21 12:21:47;;;;;;;7.07;2.10;;;30.20;63.20;;;;;;5074781;28;20290;-60
2022/06/21 12:24:20;;;;;;;5.40;2.22;;;30.40;62.40;;;;;;5075119;28;20213;-60
2022/06/21 12:26:47;;;;;;;3.65;2.08;;;30.50;62.80;;;;;;5077297;28;20685;-60
2022/06/21 12:29:17;;;;;;;4.72;2.10;;;30.50;63.10;;;;;;5078254;28;20216;-60
2022/06/21 12:31:50;;;;;;;5.05;2.17;;;30.40;63.80;;;;;;5077622;28;20235;-60
2022/06/21 12:34:27;;;;;;;2.75;1.90;;;30.60;62.80;;;;;;5077860;28;20190;-60
2022/06/21 12:37:00;;;;;;;3.55;2.20;;;31.10;62.10;;;;;;5076832;28;20204;-60
2022/06/21 12:39:34;;;;;;;3.42;2.08;;;31.50;60.80;;;;;;5078064;28;20193;-60
2022/06/21 12:42:33;;;;;;;3.92;2.20;;;31.80;60.00;;;;;;5078538;28;20229;-60
2022/06/21 12:45:15;;;;;;;5.00;2.10;;;31.90;59.90;;;;;;5070796;28;20209;-59
2022/06/21 12:47:55;;;;;;;3.85;2.10;;;32.00;60.00;;;;;;5077687;28;20573;-60
2022/06/21 12:50:40;;;;;;;3.95;2.00;;;32.10;60.80;;;;;;5076979;28;20216;-60
2022/06/21 12:53:39;;;;;;;4.15;2.05;;;31.90;60.50;;;;;;5077241;28;20225;-60
2022/06/21 12:56:15;;;;;;;5.85;2.08;;;31.50;60.90;;;;;;5076005;28;20200;-60
2022/06/21 12:59:14;;;;;;;4.15;2.40;;;31.20;63.00;;;;;;5076181;28;20578;-60
2022/06/21 13:01:48;;;;;;;3.70;2.30;;;31.10;63.20;;;;;;5078001;28;20224;-60
2022/06/21 13:04:32;;;;;;;3.65;2.20;;;30.80;63.20;;;;;;5077691;28;20201;-59
2022/06/21 13:07:21;;;;;;;6.90;2.55;;;30.40;64.80;;;;;;5077386;28;20204;-59
2022/06/21 13:10:21;;;;;;;4.35;2.40;;;29.70;66.10;;;;;;5077144;28;20201;-60
2022/06/21 13:13:27;;;;;;;6.68;2.92;;;29.20;67.50;;;;;;5076771;28;20229;-60
2022/06/21 13:16:02;;;;;;;7.47;2.50;;;28.80;69.20;;;;;;5076021;28;20212;-59
2022/06/21 13:18:44;;;;;;;6.18;2.47;;;28.80;70.60;;;;;;5076434;28;20234;-59
2022/06/21 13:21:17;;;;;;;3.78;2.55;;;28.90;70.30;;;;;;5077075;28;20235;-60
2022/06/21 13:23:59;;;;;;;3.97;2.58;;;29.00;69.70;;;;;;5076442;28;20205;-60
2022/06/21 13:26:34;;;;;;;3.83;2.30;;;29.20;69.70;;;;;;5076523;28;20208;-59
2022/06/21 13:29:16;;;;;;;3.90;2.47;;;29.40;70.00;;;;;;5076179;28;20215;-59
2022/06/21 13:31:47;;;;;;;4.75;2.50;;;29.50;69.30;;;;;;5075816;28;20232;-59
2022/06/21 13:34:37;;;;;;;4.13;2.40;;;29.60;68.90;;;;;;5076207;28;20668;-60
2022/06/21 13:37:12;;;;;;;6.75;2.97;;;29.60;69.10;;;;;;5071980;28;20205;-61
2022/06/21 13:39:51;;;;;;;3.13;2.40;;;29.50;69.50;;;;;;5076532;28;20200;-60
2022/06/21 13:42:38;;;;;;;4.43;2.40;;;29.50;69.50;;;;;;5076306;28;20225;-60